Time;durP1;ratioP1;P1;durP2;ratioP2;P2;SDS_P1;SDS_P2;PMS_P1;PMS_P2;Temp;Humidity;BMP_temperature;BMP_pressure;BME280_temperature;BME280_humidity;BME280_pressure;Samples;Min_cycle;Max_cycle;Signal;HPM_P1;HPM_P2
2022/11/17 00:00:49;;;;;;;2.97;2.30;;;;;;;6.35;77.09;100337.72;6095468;28;20232;-77
2022/11/17 00:04:10;;;;;;;1.43;1.33;;;;;;;6.37;77.52;100308.13;6103283;28;20606;-76
2022/11/17 00:07:31;;;;;;;1.93;1.67;;;;;;;6.24;77.50;100323.47;6083255;28;20264;-78
2022/11/17 00:10:52;;;;;;;2.10;1.80;;;;;;;6.22;77.56;100320.06;6097315;28;20248;-77
2022/11/17 00:14:31;;;;;;;1.40;1.30;;;;;;;6.21;77.55;100313.88;6077478;28;20228;-76
2022/11/17 00:21:17;;;;;;;1.60;1.50;;;;;;;6.32;76.92;100324.56;6094666;28;20231;-77
2022/11/17 00:21:37;;;;;;;2.60;2.20;;;;;;;6.27;76.83;100316.06;6094740;28;20242;-77
2022/11/17 00:24:58;;;;;;;1.57;1.47;;;;;;;6.16;77.38;100308.03;6095770;28;20243;-77
2022/11/17 00:28:19;;;;;;;2.30;2.10;;;;;;;6.23;77.11;100308.41;6084284;28;20231;-78
2022/11/17 00:35:21;;;;;;;3.03;2.53;;;;;;;6.25;77.58;100296.59;6108557;28;20621;-77
2022/11/17 00:38:42;;;;;;;7.70;2.33;;;;;;;6.23;77.20;100292.34;6110851;28;20645;-77
2022/11/17 00:42:03;;;;;;;3.03;2.77;;;;;;;6.18;77.44;100297.19;6101770;28;20243;-76
2022/11/17 00:45:24;;;;;;;2.63;1.60;;;;;;;6.19;77.08;100289.06;6111639;28;20237;-76
2022/11/17 00:48:47;;;;;;;3.67;2.87;;;;;;;6.24;77.29;100278.81;6109679;28;20726;-77
2022/11/17 00:52:09;;;;;;;2.53;2.10;;;;;;;6.14;77.32;100288.56;6106798;28;20236;-77
2022/11/17 00:55:30;;;;;;;3.10;2.80;;;;;;;6.20;77.44;100289.91;6105309;28;20228;-77
2022/11/17 00:58:52;;;;;;;3.07;2.40;;;;;;;6.21;76.78;100265.72;6115107;28;20237;-77
2022/11/17 01:02:13;;;;;;;3.03;2.70;;;;;;;6.19;77.16;100275.69;6102846;28;20243;-77
2022/11/17 01:05:35;;;;;;;3.93;1.90;;;;;;;6.12;77.31;100270.94;6109336;28;20228;-77
2022/11/17 01:08:58;;;;;;;2.53;2.33;;;;;;;6.08;77.36;100256.97;6104407;28;20224;-77
2022/11/17 01:12:19;;;;;;;2.50;2.30;;;;;;;6.07;77.12;100263.28;6107957;28;20331;-77
2022/11/17 01:15:40;;;;;;;2.27;2.07;;;;;;;6.10;77.35;100255.00;6102848;28;20232;-77
2022/11/17 01:19:02;;;;;;;1.93;1.73;;;;;;;6.12;77.38;100270.94;6115599;28;20922;-78
2022/11/17 01:22:25;;;;;;;2.70;2.50;;;;;;;6.08;77.39;100264.13;6106786;28;20689;-77
2022/11/17 01:25:46;;;;;;;2.73;2.23;;;;;;;6.10;77.22;100259.50;6109740;28;20260;-77
2022/11/17 01:29:09;;;;;;;2.53;2.33;;;;;;;6.15;77.21;100247.44;6101813;28;20228;-77
2022/11/17 01:32:30;;;;;;;3.73;2.10;;;;;;;6.08;76.97;100234.69;6097191;28;20235;-77
2022/11/17 01:35:51;;;;;;;3.33;2.23;;;;;;;6.05;77.21;100229.63;6102973;28;20256;-77
2022/11/17 01:39:13;;;;;;;4.60;2.70;;;;;;;6.05;77.25;100229.63;6098053;28;20223;-77
2022/11/17 01:42:34;;;;;;;3.23;2.20;;;;;;;6.05;77.31;100210.88;6096358;28;20224;-76
2022/11/17 01:45:55;;;;;;;3.40;2.77;;;;;;;5.97;77.55;100207.94;6107264;28;20235;-77
2022/11/17 01:49:24;;;;;;;4.00;2.70;;;;;;;5.99;76.95;100193.47;6106833;28;20755;-76
2022/11/17 01:52:46;;;;;;;2.47;2.23;;;;;;;5.99;77.31;100196.16;6107364;28;20318;-77
2022/11/17 01:56:15;;;;;;;2.50;2.30;;;;;;;5.97;77.41;100191.91;6108569;28;20286;-78
2022/11/17 01:59:39;;;;;;;2.37;2.13;;;;;;;5.98;77.30;100194.47;6094612;28;20220;-78
2022/11/17 02:03:01;;;;;;;2.70;2.20;;;;;;;5.92;77.80;100200.31;6106646;28;20323;-77
2022/11/17 02:06:28;;;;;;;2.57;2.10;;;;;;;5.80;77.97;100208.44;6089223;28;20240;-77
2022/11/17 02:09:49;;;;;;;3.83;3.27;;;;;;;5.81;77.85;100194.94;6118591;28;20236;-77
2022/11/17 02:13:12;;;;;;;3.67;3.37;;;;;;;5.88;77.81;100188.19;6107812;28;20231;-77
2022/11/17 02:16:33;;;;;;;2.63;2.00;;;;;;;5.86;77.40;100181.25;6094443;28;20649;-77
2022/11/17 02:20:01;;;;;;;5.93;3.83;;;;;;;5.76;77.86;100175.72;6117823;28;20232;-77
2022/11/17 02:23:56;;;;;;;3.47;2.87;;;;;;;5.70;77.70;100181.56;6114408;28;20624;-78
2022/11/17 02:27:50;;;;;;;3.57;3.13;;;;;;;5.78;77.15;100165.75;6100774;28;20238;-78
2022/11/17 02:31:22;;;;;;;6.03;4.47;;;;;;;5.83;77.08;100170.75;6102770;28;20684;-77
2022/11/17 02:34:49;;;;;;;3.80;2.93;;;;;;;5.73;76.90;100172.47;6096844;28;20240;-78
2022/11/17 02:38:25;;;;;;;3.47;3.17;;;;;;;5.67;77.29;100169.28;6114734;28;20220;-78
2022/11/17 02:41:54;;;;;;;2.53;2.13;;;;;;;5.75;76.96;100165.16;6098855;28;20236;-78
2022/11/17 02:45:20;;;;;;;3.33;2.60;;;;;;;5.72;76.88;100163.56;6102695;28;20251;-78
2022/11/17 02:48:45;;;;;;;5.23;3.00;;;;;;;5.62;77.02;100159.94;6098094;28;20224;-78
2022/11/17 02:52:09;;;;;;;2.97;2.77;;;;;;;5.53;76.78;100160.66;6096591;28;20232;-78
2022/11/17 02:55:32;;;;;;;5.87;2.20;;;;;;;5.58;77.02;100151.34;6105726;28;20227;-77
2022/11/17 02:58:57;;;;;;;3.13;2.83;;;;;;;5.68;76.93;100156.78;6108982;28;20236;-77
2022/11/17 03:02:40;;;;;;;2.57;2.37;;;;;;;5.64;77.18;100158.00;6099611;28;20227;-78
2022/11/17 03:06:10;;;;;;;2.73;2.53;;;;;;;5.53;76.42;100155.31;6108745;28;20614;-78
2022/11/17 03:09:44;;;;;;;3.73;3.47;;;;;;;5.59;76.33;100139.66;6098883;28;20223;-78
2022/11/17 03:13:11;;;;;;;4.87;4.20;;;;;;;5.64;76.21;100142.81;6109787;28;20609;-78
2022/11/17 03:16:37;;;;;;;2.17;1.93;;;;;;;5.57;76.53;100128.22;6095610;28;20314;-76
2022/11/17 03:20:03;;;;;;;2.93;2.63;;;;;;;5.44;76.47;100132.03;6104205;28;20235;-75
2022/11/17 03:23:31;;;;;;;3.43;3.13;;;;;;;5.39;76.20;100128.84;6112245;28;20595;-77
2022/11/17 03:26:57;;;;;;;3.40;3.10;;;;;;;5.36;76.77;100121.91;6096300;28;20231;-77
2022/11/17 03:30:21;;;;;;;3.40;3.00;;;;;;;5.45;76.57;100115.84;6110049;28;20260;-77
2022/11/17 03:33:45;;;;;;;2.90;2.70;;;;;;;5.36;76.84;100121.09;6099246;28;20231;-76
2022/11/17 03:37:10;;;;;;;4.50;2.70;;;;;;;5.39;76.87;100121.69;6097712;28;20318;-76
2022/11/17 03:40:34;;;;;;;2.73;2.53;;;;;;;5.42;76.66;100112.59;6103721;28;20231;-77
2022/11/17 03:43:58;;;;;;;2.70;2.40;;;;;;;5.34;76.65;100107.84;6092933;28;20235;-77
2022/11/17 03:47:23;;;;;;;3.23;2.80;;;;;;;5.37;76.32;100106.75;6100321;28;20235;-77
2022/11/17 03:50:47;;;;;;;3.83;3.53;;;;;;;5.33;76.09;100098.13;6110184;28;20235;-76
2022/11/17 03:54:10;;;;;;;5.57;3.50;;;;;;;5.34;76.52;100089.13;6110359;28;20232;-76
2022/11/17 03:57:38;;;;;;;2.67;2.47;;;;;;;5.32;76.10;100077.72;6093599;28;20622;-77
2022/11/17 04:01:03;;;;;;;5.33;3.10;;;;;;;5.26;76.42;100072.88;6101008;28;20503;-76
2022/11/17 04:05:04;;;;;;;2.83;2.63;;;;;;;5.24;76.14;100068.59;6103817;28;20530;-77
2022/11/17 04:08:06;;;;;;;3.47;3.17;;;;;;;5.31;76.21;100062.66;6113328;28;20227;-76
2022/11/17 04:18:46;;;;;;;2.77;2.20;;;;;;;5.14;76.16;100056.97;6091095;28;20645;-77
2022/11/17 04:22:08;;;;;;;2.73;2.40;;;;;;;5.13;76.43;100053.44;6103090;28;20598;-76
2022/11/17 04:29:05;;;;;;;3.10;2.27;;;;;;;5.20;76.31;100038.63;6097498;28;20235;-76
2022/11/17 04:32:25;;;;;;;2.57;2.10;;;;;;;5.13;76.52;100047.25;6096797;28;20244;-76
2022/11/17 04:35:50;;;;;;;2.90;2.13;;;;;;;5.16;75.94;100052.34;6102568;28;20243;-76
2022/11/17 04:39:12;;;;;;;3.50;3.20;;;;;;;5.20;76.06;100051.97;6099876;28;20319;-78
2022/11/17 04:42:33;;;;;;;3.03;2.73;;;;;;;5.09;76.26;100040.47;6102659;28;20231;-78
2022/11/17 04:45:59;;;;;;;2.73;2.53;;;;;;;5.01;77.05;100032.19;6097235;28;20240;-77
2022/11/17 04:49:22;;;;;;;4.00;3.13;;;;;;;5.11;76.63;100036.69;6104599;28;20232;-76
2022/11/17 04:52:43;;;;;;;2.87;2.67;;;;;;;5.04;76.82;100035.50;6111800;28;20520;-76
2022/11/17 04:56:05;;;;;;;4.33;3.17;;;;;;;5.10;76.45;100047.50;6106931;28;20220;-77
2022/11/17 04:59:26;;;;;;;5.37;3.97;;;;;;;5.00;76.77;100042.03;6103638;28;20229;-77
2022/11/17 05:02:48;;;;;;;6.40;3.17;;;;;;;4.94;76.52;100031.84;6093825;28;20247;-79
2022/11/17 05:06:09;;;;;;;4.73;3.20;;;;;;;5.06;76.73;100032.69;6114328;28;20231;-79
2022/11/17 05:09:30;;;;;;;4.10;2.50;;;;;;;5.15;76.61;100019.47;6108948;28;20237;-80
2022/11/17 05:20:11;;;;;;;4.20;2.97;;;;;;;5.03;76.54;100023.09;6108615;28;20318;-81
2022/11/17 05:27:10;;;;;;;6.63;4.27;;;;;;;4.98;76.66;100022.63;6096732;28;20239;-81
2022/11/17 05:30:31;;;;;;;3.73;3.00;;;;;;;5.04;76.51;100013.25;6102121;28;21245;-78
2022/11/17 05:33:53;;;;;;;3.30;2.97;;;;;;;4.95;76.78;100028.19;6110786;28;20536;-77
2022/11/17 05:37:15;;;;;;;2.80;2.60;;;;;;;5.00;76.98;100009.16;6107854;28;20712;-78
2022/11/17 05:40:36;;;;;;;3.30;3.00;;;;;;;5.00;76.82;100014.47;6109296;28;20248;-77
2022/11/17 05:43:57;;;;;;;3.60;3.30;;;;;;;5.01;76.71;100016.16;6099443;28;20319;-77
2022/11/17 05:47:18;;;;;;;5.27;2.57;;;;;;;5.03;76.65;99998.22;6108117;28;20244;-78
2022/11/17 05:50:39;;;;;;;5.00;3.40;;;;;;;5.05;76.96;100004.28;6109341;28;20240;-77
2022/11/17 05:54:02;;;;;;;3.37;3.07;;;;;;;4.93;76.65;100016.78;6116071;28;20610;-77
2022/11/17 05:57:29;;;;;;;3.87;3.47;;;;;;;4.82;76.88;100006.97;6105442;28;20227;-77
2022/11/17 06:00:52;;;;;;;3.53;3.23;;;;;;;4.90;76.61;100001.03;6101686;28;20800;-76
2022/11/17 06:04:16;;;;;;;3.70;3.40;;;;;;;4.92;76.56;100008.91;6094199;28;20228;-77
2022/11/17 06:07:39;;;;;;;3.17;2.60;;;;;;;4.86;77.05;100004.88;6105485;28;20260;-77
2022/11/17 06:11:01;;;;;;;3.60;3.30;;;;;;;4.93;76.94;99999.91;6103517;28;20232;-78
2022/11/17 06:14:22;;;;;;;3.77;3.10;;;;;;;4.91;76.78;99983.16;6107473;28;20244;-77
2022/11/17 06:17:48;;;;;;;5.50;4.47;;;;;;;4.93;76.96;100005.25;6095788;28;20336;-77
2022/11/17 06:21:10;;;;;;;5.23;4.67;;;;;;;4.95;76.68;99984.63;6108940;28;21626;-76
2022/11/17 06:24:33;;;;;;;4.70;4.23;;;;;;;4.93;76.73;99994.56;6106713;28;20776;-77
2022/11/17 06:27:56;;;;;;;4.70;4.33;;;;;;;4.87;77.06;99995.91;6099133;28;20235;-77
2022/11/17 06:31:18;;;;;;;5.03;4.53;;;;;;;4.93;76.28;99978.53;6089835;28;20240;-77
2022/11/17 06:34:39;;;;;;;3.87;3.27;;;;;;;4.81;76.65;99983.91;6112906;28;20240;-76
2022/11/17 06:38:00;;;;;;;3.73;3.40;;;;;;;4.91;76.22;99983.16;6094131;28;20234;-79
2022/11/17 06:41:21;;;;;;;4.37;3.17;;;;;;;4.95;76.17;99971.25;6092788;28;20240;-79
2022/11/17 06:44:43;;;;;;;6.73;3.73;;;;;;;4.98;76.72;99990.59;6092615;28;20235;-77
2022/11/17 06:48:05;;;;;;;3.97;3.67;;;;;;;4.98;76.26;99984.38;6088865;28;20231;-83
2022/11/17 06:51:25;;;;;;;3.90;3.17;;;;;;;4.86;77.12;99991.53;6086733;28;20232;-77
2022/11/17 06:54:46;;;;;;;2.97;2.63;;;;;;;4.96;76.14;100003.22;6089473;28;20772;-70
2022/11/17 06:58:10;;;;;;;3.37;3.17;;;;;;;4.88;75.63;99990.44;6102451;28;20255;-70
2022/11/17 07:01:32;;;;;;;4.47;4.07;;;;;;;4.81;75.83;100018.63;6087165;28;20717;-71
2022/11/17 07:04:53;;;;;;;7.50;4.47;;;;;;;4.58;76.93;100006.22;6108509;28;20316;-74
2022/11/17 07:08:15;;;;;;;6.03;5.00;;;;;;;4.76;77.09;99995.91;6100486;28;20236;-75
2022/11/17 07:11:36;;;;;;;4.00;3.63;;;;;;;4.68;76.42;99979.66;6088706;28;20231;-76
2022/11/17 07:14:56;;;;;;;3.77;3.47;;;;;;;4.68;76.82;99991.19;6095991;28;20243;-76
2022/11/17 07:18:20;;;;;;;3.87;3.50;;;;;;;4.80;76.24;99979.53;6091328;28;20252;-75
2022/11/17 07:21:42;;;;;;;3.60;3.30;;;;;;;4.80;76.15;99966.19;6074187;28;21022;-82
2022/11/17 07:25:03;;;;;;;5.50;3.40;;;;;;;4.81;76.62;99975.91;6079498;28;20240;-82
2022/11/17 07:28:24;;;;;;;3.93;3.43;;;;;;;4.81;76.10;99983.91;6094449;28;20227;-77
2022/11/17 07:31:44;;;;;;;4.27;3.77;;;;;;;4.77;76.50;99976.25;6090652;28;20320;-80
2022/11/17 07:35:08;;;;;;;3.57;3.27;;;;;;;4.66;76.79;99976.25;6105922;28;20236;-77
2022/11/17 07:38:31;;;;;;;4.43;3.60;;;;;;;4.73;76.96;99977.47;6077137;28;20228;-76
2022/11/17 07:41:52;;;;;;;4.97;3.77;;;;;;;4.62;76.78;99980.13;6087366;28;20245;-73
2022/11/17 07:45:13;;;;;;;4.23;3.27;;;;;;;4.71;77.14;99985.59;6071060;28;20239;-71
2022/11/17 07:48:35;;;;;;;4.03;3.40;;;;;;;4.71;76.92;99974.91;6076529;28;21755;-73
2022/11/17 07:51:57;;;;;;;5.03;4.53;;;;;;;4.72;76.83;99976.63;6090975;28;20243;-77
2022/11/17 07:55:18;;;;;;;4.40;4.00;;;;;;;4.76;77.04;99970.06;6107861;28;20243;-74
2022/11/17 07:58:40;;;;;;;5.63;4.27;;;;;;;4.75;76.83;99980.88;6090613;28;20227;-75
2022/11/17 08:02:01;;;;;;;3.47;3.13;;;;;;;4.67;76.58;99978.78;6072020;28;20236;-77
2022/11/17 08:05:21;;;;;;;3.37;2.67;;;;;;;4.72;76.82;99983.78;6090427;28;20595;-75
2022/11/17 08:08:44;;;;;;;3.67;2.90;;;;;;;4.76;76.38;99978.06;6085230;28;20243;-73
2022/11/17 08:12:05;;;;;;;5.60;3.17;;;;;;;4.70;76.58;99983.03;6100105;28;20614;-72
2022/11/17 08:15:26;;;;;;;8.17;4.30;;;;;;;4.62;77.80;99988.16;6115798;28;20240;-74
2022/11/17 08:18:48;;;;;;;3.77;3.00;;;;;;;4.73;77.30;99978.34;6116149;28;20224;-72
2022/11/17 08:22:09;;;;;;;4.33;3.87;;;;;;;4.77;77.27;99977.13;6106542;28;20268;-74
2022/11/17 08:25:31;;;;;;;5.37;4.17;;;;;;;4.84;76.77;99962.28;6107699;28;20236;-78
2022/11/17 08:28:52;;;;;;;3.87;3.27;;;;;;;4.77;77.33;99970.94;6113184;28;20223;-73
2022/11/17 08:32:13;;;;;;;4.07;3.37;;;;;;;4.77;77.33;99963.78;6103644;28;20245;-73
2022/11/17 08:35:34;;;;;;;4.30;3.90;;;;;;;4.88;77.32;99983.44;6113537;28;20670;-71
2022/11/17 08:38:55;;;;;;;4.53;3.33;;;;;;;4.82;76.75;99971.38;6105051;28;20232;-72
2022/11/17 08:42:18;;;;;;;3.93;3.47;;;;;;;4.80;77.22;99963.50;6112608;28;20533;-74
2022/11/17 08:45:40;;;;;;;5.57;2.87;;;;;;;4.89;76.83;99967.28;6113850;28;20864;-74
2022/11/17 08:49:01;;;;;;;3.47;3.13;;;;;;;4.82;77.32;99964.25;6091874;28;20227;-75
2022/11/17 08:52:23;;;;;;;4.20;3.80;;;;;;;4.90;77.39;99950.28;6110633;28;20631;-78
2022/11/17 08:55:43;;;;;;;4.67;3.00;;;;;;;4.97;77.06;99945.28;6109248;28;20232;-73
2022/11/17 08:59:08;;;;;;;4.90;4.40;;;;;;;4.85;78.29;99955.13;6110278;28;20237;-79
2022/11/17 09:02:28;;;;;;;4.03;3.63;;;;;;;4.95;77.89;99956.09;6093486;28;20518;-77
2022/11/17 09:05:49;;;;;;;5.67;4.27;;;;;;;4.84;78.09;99962.28;6106576;28;20232;-76
2022/11/17 09:09:10;;;;;;;4.70;3.43;;;;;;;4.88;78.28;99954.06;6109333;28;20260;-74
2022/11/17 09:12:32;;;;;;;5.93;4.00;;;;;;;4.81;78.42;99956.38;6094507;28;20332;-77
2022/11/17 09:15:54;;;;;;;4.87;3.80;;;;;;;4.90;77.94;99946.78;6107766;28;20232;-77
2022/11/17 09:19:15;;;;;;;4.77;4.20;;;;;;;4.99;78.06;99946.00;6095507;28;20541;-74
2022/11/17 09:22:36;;;;;;;4.60;4.20;;;;;;;5.03;77.62;99942.97;6097706;28;20227;-77
2022/11/17 09:26:05;;;;;;;5.57;4.10;;;;;;;4.88;78.11;99948.72;6104783;28;20576;-92
2022/11/17 09:29:26;;;;;;;5.77;4.43;;;;;;;4.95;78.52;99952.56;6105486;28;20268;-83
2022/11/17 09:32:48;;;;;;;5.57;3.80;;;;;;;5.11;78.09;99937.84;6107081;28;20266;-78
2022/11/17 09:36:10;;;;;;;5.40;4.37;;;;;;;5.01;78.07;99958.28;6117804;28;20237;-80
2022/11/17 09:39:31;;;;;;;5.20;4.17;;;;;;;4.96;77.72;99947.13;6111634;28;20324;-77
2022/11/17 09:42:53;;;;;;;5.17;4.30;;;;;;;4.96;78.04;99943.59;6111780;28;20235;-75
2022/11/17 09:46:19;;;;;;;5.63;4.57;;;;;;;5.04;78.04;99925.13;6103084;28;21331;-74
2022/11/17 09:49:50;;;;;;;4.67;3.23;;;;;;;5.10;78.05;99916.63;6107401;28;21080;-85
2022/11/17 09:53:19;;;;;;;4.13;3.77;;;;;;;5.01;78.26;99936.03;6100777;28;20848;-81
2022/11/17 09:56:40;;;;;;;6.13;3.83;;;;;;;5.01;77.77;99922.69;6102802;28;20811;-83
2022/11/17 10:00:06;;;;;;;4.53;4.13;;;;;;;5.05;77.71;99908.97;6100460;28;20523;-73
2022/11/17 10:03:30;;;;;;;6.03;4.27;;;;;;;4.97;77.78;99922.09;6072806;28;20359;-76
2022/11/17 10:06:53;;;;;;;7.77;4.83;;;;;;;5.01;78.40;99925.38;6104587;28;20227;-73
2022/11/17 10:10:19;;;;;;;5.77;4.33;;;;;;;5.08;78.56;99907.88;6118028;28;20231;-72
2022/11/17 10:13:40;;;;;;;6.87;4.63;;;;;;;5.02;78.46;99921.75;6107940;28;21100;-71
2022/11/17 10:17:01;;;;;;;5.50;4.07;;;;;;;5.11;78.08;99934.34;6099748;28;20223;-73
2022/11/17 10:20:22;;;;;;;6.87;5.20;;;;;;;5.09;78.07;99915.75;6106861;28;20849;-73
2022/11/17 10:23:52;;;;;;;4.80;3.97;;;;;;;5.02;78.59;99929.75;6105268;28;20607;-73
2022/11/17 10:27:21;;;;;;;6.93;4.07;;;;;;;5.20;78.26;99901.53;6096275;28;20243;-74
2022/11/17 10:30:53;;;;;;;6.10;4.20;;;;;;;5.17;78.26;99902.66;6103182;28;20341;-74
2022/11/17 10:34:31;;;;;;;7.93;5.13;;;;;;;5.13;78.85;99876.31;6100232;28;20621;-75
2022/11/17 10:37:56;;;;;;;4.93;4.03;;;;;;;5.44;81.98;99887.00;6098442;28;20227;-71
2022/11/17 10:41:21;;;;;;;5.03;3.83;;;;;;;5.76;82.01;99888.78;6085567;28;20235;-71
2022/11/17 10:44:44;;;;;;;5.80;4.47;;;;;;;5.54;80.03;99887.94;6104590;28;20232;-70
2022/11/17 10:48:22;;;;;;;3.97;3.53;;;;;;;5.46;79.26;99879.72;6074363;29;20239;-72
2022/11/17 10:51:43;;;;;;;4.57;3.90;;;;;;;5.34;80.04;99875.38;6085274;28;20239;-73
2022/11/17 10:55:28;;;;;;;7.33;4.87;;;;;;;5.31;80.47;99875.63;6100200;28;20243;-73
2022/11/17 10:59:13;;;;;;;5.83;4.33;;;;;;;5.30;80.58;99876.59;6101567;28;20232;-74
2022/11/17 11:02:37;;;;;;;6.53;4.57;;;;;;;5.25;80.04;99865.47;6092393;28;20307;-72
2022/11/17 11:06:03;;;;;;;4.77;4.33;;;;;;;5.05;81.00;99870.75;6099642;28;20244;-72
2022/11/17 11:09:26;;;;;;;10.23;4.77;;;;;;;5.12;81.29;99864.78;6095950;28;20235;-74
2022/11/17 11:12:55;;;;;;;5.33;4.80;;;;;;;5.20;81.53;99864.97;6104141;28;20234;-74
2022/11/17 11:16:17;;;;;;;5.80;4.50;;;;;;;5.21;81.12;99872.03;6083949;28;20235;-72
2022/11/17 11:19:39;;;;;;;5.50;4.40;;;;;;;5.14;81.61;99867.31;6108169;28;20223;-73
2022/11/17 11:23:08;;;;;;;5.70;4.13;;;;;;;5.09;82.39;99856.19;6107643;28;20238;-73
2022/11/17 11:26:46;;;;;;;5.70;4.17;;;;;;;5.07;81.77;99852.78;6102294;28;20235;-72
2022/11/17 11:30:12;;;;;;;5.43;4.87;;;;;;;5.14;82.25;99846.78;6101110;28;20243;-73
2022/11/17 11:33:39;;;;;;;6.93;4.87;;;;;;;5.03;82.51;99860.19;6091409;28;20231;-74
2022/11/17 11:37:08;;;;;;;5.43;4.60;;;;;;;5.08;82.40;99857.13;6098715;28;20889;-74
2022/11/17 11:40:34;;;;;;;5.40;4.40;;;;;;;5.05;83.18;99844.88;6109014;28;20532;-75
2022/11/17 11:44:13;;;;;;;4.83;4.17;;;;;;;4.97;82.91;99841.13;6089427;28;20255;-74
2022/11/17 11:47:50;;;;;;;7.67;4.37;;;;;;;5.04;83.32;99850.34;6082192;28;20235;-75
2022/11/17 11:51:15;;;;;;;5.30;3.70;;;;;;;4.98;83.29;99848.19;6102714;28;20235;-74
2022/11/17 11:54:42;;;;;;;4.83;4.30;;;;;;;5.03;84.32;99838.00;6111141;28;20231;-73
2022/11/17 11:58:12;;;;;;;7.60;4.33;;;;;;;5.01;84.15;99842.56;6088908;28;20240;-73
2022/11/17 12:01:39;;;;;;;4.37;3.97;;;;;;;4.95;84.69;99843.09;6085668;28;20235;-74
2022/11/17 12:05:11;;;;;;;9.23;4.70;;;;;;;4.96;84.87;99839.47;6105112;28;20228;-74
2022/11/17 12:08:41;;;;;;;5.63;4.87;;;;;;;5.04;84.58;99847.69;6109365;28;20394;-74
2022/11/17 12:12:08;;;;;;;7.10;4.83;;;;;;;4.97;85.48;99842.00;6105645;28;20238;-74
2022/11/17 12:15:36;;;;;;;5.00;4.30;;;;;;;4.94;85.34;99817.38;6102621;28;20236;-73
2022/11/17 12:18:57;;;;;;;5.10;4.60;;;;;;;4.95;85.83;99851.09;6100460;28;20231;-73
2022/11/17 12:22:39;;;;;;;5.03;4.50;;;;;;;4.98;85.72;99834.84;6095256;28;20240;-71
2022/11/17 12:26:02;;;;;;;6.13;4.77;;;;;;;5.05;85.74;99834.19;6099023;28;20240;-74
2022/11/17 12:29:27;;;;;;;3.97;3.43;;;;;;;5.02;86.38;99837.13;6098160;28;20239;-72
2022/11/17 12:32:53;;;;;;;5.43;4.73;;;;;;;5.02;86.78;99849.63;6087526;28;20239;-74
2022/11/17 12:36:30;;;;;;;6.37;4.10;;;;;;;5.11;86.29;99833.69;6102615;28;20232;-72
2022/11/17 12:39:54;;;;;;;4.77;4.03;;;;;;;5.02;85.93;99837.13;6109262;28;20699;-75
2022/11/17 12:43:24;;;;;;;5.87;4.70;;;;;;;5.06;86.11;99849.25;6105574;28;20231;-73
2022/11/17 12:46:46;;;;;;;6.07;5.50;;;;;;;5.06;85.55;99848.41;6080593;28;20710;-74
2022/11/17 12:50:21;;;;;;;5.97;4.80;;;;;;;4.93;86.36;99845.03;6115664;28;20344;-76
2022/11/17 12:53:55;;;;;;;5.63;4.13;;;;;;;5.02;86.54;99839.81;6081580;28;20228;-73
2022/11/17 12:57:21;;;;;;;4.33;3.93;;;;;;;5.00;86.12;99855.09;6091701;28;20291;-74
2022/11/17 13:00:53;;;;;;;6.17;5.00;;;;;;;5.04;85.94;99851.22;6095651;28;20686;-74
2022/11/17 13:04:17;;;;;;;7.13;4.80;;;;;;;5.01;86.33;99850.59;6105495;28;20235;-76
2022/11/17 13:07:37;;;;;;;7.77;5.50;;;;;;;5.00;86.27;99854.25;6111329;28;20243;-73
2022/11/17 13:11:04;;;;;;;5.37;4.73;;;;;;;4.97;86.94;99852.69;6112699;28;20247;-73
2022/11/17 13:14:25;;;;;;;6.47;5.47;;;;;;;4.88;86.36;99850.78;6093071;28;20377;-77
2022/11/17 13:17:47;;;;;;;5.00;4.50;;;;;;;4.99;86.45;99861.41;6111974;28;20487;-74
2022/11/17 13:21:27;;;;;;;5.93;5.33;;;;;;;4.77;86.27;99834.78;6105887;28;20235;-73
2022/11/17 13:24:49;;;;;;;5.30;3.90;;;;;;;4.81;87.43;99849.56;6100528;28;20531;-74
2022/11/17 13:28:26;;;;;;;5.80;4.57;;;;;;;4.88;87.78;99858.78;6105017;28;20315;-73
2022/11/17 13:31:46;;;;;;;7.33;5.30;;;;;;;5.00;87.01;99856.91;6089951;28;20239;-71
2022/11/17 13:35:21;;;;;;;7.40;5.60;;;;;;;4.88;87.71;99845.44;6107171;28;20661;-72
2022/11/17 13:38:49;;;;;;;5.77;4.97;;;;;;;4.88;86.73;99857.94;6104089;28;20263;-74
2022/11/17 13:42:12;;;;;;;7.40;4.73;;;;;;;4.90;87.08;99850.66;6102632;28;20236;-73
2022/11/17 13:45:33;;;;;;;7.57;4.77;;;;;;;4.86;86.93;99844.69;6100789;28;20649;-78
2022/11/17 13:48:54;;;;;;;5.07;3.57;;;;;;;4.83;87.27;99855.63;6105197;28;20552;-76
2022/11/17 13:52:32;;;;;;;4.63;4.13;;;;;;;4.81;87.34;99852.25;6096671;28;20235;-74
2022/11/17 13:55:54;;;;;;;5.70;4.87;;;;;;;4.88;88.01;99864.94;6094455;28;20231;-75
2022/11/17 13:59:23;;;;;;;4.67;4.03;;;;;;;4.79;87.10;99854.19;6078714;28;20235;-75
2022/11/17 14:02:52;;;;;;;5.90;5.30;;;;;;;4.82;87.45;99860.13;6089612;28;20240;-76
2022/11/17 14:06:14;;;;;;;8.97;4.37;;;;;;;4.77;87.49;99865.00;6098407;28;20243;-75
2022/11/17 14:09:36;;;;;;;5.40;4.90;;;;;;;4.74;87.77;99870.56;6104229;28;20236;-75
2022/11/17 14:13:20;;;;;;;6.00;4.57;;;;;;;4.77;87.35;99870.34;6110363;28;21244;-75
2022/11/17 14:16:41;;;;;;;6.27;5.57;;;;;;;4.74;87.68;99862.56;6095810;28;20247;-75
2022/11/17 14:20:19;;;;;;;6.50;4.90;;;;;;;4.72;87.96;99874.34;6113064;28;21248;-74
2022/11/17 14:23:41;;;;;;;6.23;5.27;;;;;;;4.71;87.48;99870.81;6096534;28;20690;-72
2022/11/17 14:27:13;;;;;;;5.80;4.83;;;;;;;4.69;87.81;99870.09;6099672;28;20234;-75
2022/11/17 14:30:34;;;;;;;5.50;4.17;;;;;;;4.74;87.92;99875.06;6102810;28;20251;-74
2022/11/17 14:33:55;;;;;;;5.63;4.07;;;;;;;4.66;87.92;99874.84;6100267;28;20248;-71
2022/11/17 14:37:16;;;;;;;10.10;6.07;;;;;;;4.60;87.98;99872.66;6088375;28;20246;-75
2022/11/17 14:58:08;;;;;;;6.63;5.00;;;;;;;4.67;87.94;99890.72;6100387;28;20331;-76
2022/11/17 15:01:33;;;;;;;5.80;5.03;;;;;;;4.65;88.23;99881.97;6090608;28;20256;-75
2022/11/17 15:04:54;;;;;;;3.73;3.17;;;;;;;4.54;88.02;99890.03;6083591;28;20614;-72
2022/11/17 15:08:15;;;;;;;5.20;4.07;;;;;;;4.69;87.83;99895.94;6078697;28;20225;-74
2022/11/17 15:11:36;;;;;;;6.00;4.73;;;;;;;4.64;87.91;99895.47;6064341;28;20242;-73
2022/11/17 15:14:57;;;;;;;5.80;4.57;;;;;;;4.69;88.25;99903.97;6099970;28;20247;-77
2022/11/17 15:18:19;;;;;;;5.37;4.80;;;;;;;4.69;87.90;99906.63;6089205;28;21028;-75
2022/11/17 15:21:40;;;;;;;8.20;3.63;;;;;;;4.67;88.30;99909.41;6078172;28;20264;-74
2022/11/17 15:25:00;;;;;;;5.27;4.87;;;;;;;4.55;88.92;99902.38;6102355;28;20244;-74
2022/11/17 15:28:22;;;;;;;5.70;4.17;;;;;;;4.60;88.38;99913.53;6091295;28;20227;-76
2022/11/17 15:31:43;;;;;;;7.17;4.87;;;;;;;4.42;88.32;99919.50;6081954;28;20349;-74
2022/11/17 15:35:06;;;;;;;4.10;3.23;;;;;;;4.49;88.78;99907.34;6086638;28;20330;-75
2022/11/17 15:38:27;;;;;;;4.50;4.10;;;;;;;4.58;88.56;99904.81;6113261;28;20227;-74
2022/11/17 15:41:49;;;;;;;4.77;3.90;;;;;;;4.65;88.35;99911.34;6100983;28;20238;-74
2022/11/17 15:45:10;;;;;;;4.37;3.53;;;;;;;4.61;88.21;99911.75;6111166;28;20235;-74
2022/11/17 15:48:32;;;;;;;5.10;3.90;;;;;;;4.64;88.54;99916.81;6114176;28;20301;-74
2022/11/17 15:51:54;;;;;;;4.73;3.77;;;;;;;4.56;88.29;99917.44;6092231;28;20503;-73
2022/11/17 15:55:15;;;;;;;6.03;3.87;;;;;;;4.57;89.25;99927.13;6107941;28;20227;-73
2022/11/17 15:58:36;;;;;;;5.77;3.87;;;;;;;4.46;89.61;99932.47;6102034;28;20244;-75
2022/11/17 16:01:57;;;;;;;4.03;3.63;;;;;;;4.53;89.34;99933.66;6086839;28;20309;-72
2022/11/17 16:05:18;;;;;;;4.53;4.07;;;;;;;4.41;89.14;99934.66;6105700;28;20482;-75
2022/11/17 16:08:41;;;;;;;6.27;5.53;;;;;;;4.50;89.55;99925.06;6111414;28;20659;-76
2022/11/17 16:12:02;;;;;;;5.13;3.97;;;;;;;4.56;89.42;99924.59;6099368;28;20258;-74
2022/11/17 16:15:23;;;;;;;4.97;3.73;;;;;;;4.54;89.26;99929.19;6119239;28;20236;-76
2022/11/17 16:18:44;;;;;;;5.07;3.27;;;;;;;4.52;89.04;99929.31;6099443;28;20235;-73
2022/11/17 16:22:05;;;;;;;4.20;3.20;;;;;;;4.50;89.51;99938.41;6109255;28;20620;-75
2022/11/17 16:25:27;;;;;;;3.90;3.50;;;;;;;4.59;89.10;99941.19;6115173;28;20299;-73
2022/11/17 16:28:48;;;;;;;4.97;4.20;;;;;;;4.61;89.09;99928.56;6086507;28;20228;-75
2022/11/17 16:32:08;;;;;;;5.17;4.20;;;;;;;4.54;89.50;99938.06;6088072;28;20235;-75
2022/11/17 16:35:29;;;;;;;3.93;3.00;;;;;;;4.60;88.83;99942.91;6102826;28;20236;-76
2022/11/17 16:38:52;;;;;;;3.53;3.13;;;;;;;4.51;89.11;99938.28;6116313;28;20256;-75
2022/11/17 16:42:14;;;;;;;4.27;3.20;;;;;;;4.45;89.13;99930.75;6102121;28;20524;-75
2022/11/17 16:45:41;;;;;;;3.67;3.37;;;;;;;4.36;88.68;99938.66;6101951;28;20232;-75
2022/11/17 16:49:05;;;;;;;7.13;3.53;;;;;;;4.53;88.31;99932.81;6110215;28;20235;-76
2022/11/17 16:52:26;;;;;;;4.30;2.93;;;;;;;4.55;89.17;99947.75;6099901;28;20625;-76